^^
Saratoga-Weather Station Historical Data
Daily Summary for May 16, 2022 Units:  English    Metric   Both
Daily Weekly Monthly Yearly Custom
  High: Low: Average:
Temperature: 72.9 °F 58.5 °F 64.9 °F
Dew Point: 61.5 °F 54.3 °F 59 °F
Humidity: 96% 62% 82%
Wind Speed: 15mph 0mph 2.1mph
Wind Gust: 15mph - -
Wind- - West
Pressure: 30.1 in 29.9 in -
Precipitation: 0.13 in    
Historical Graphs
 
 
Tabular Data for May 16, 2022
Time Temperature Dew Point Pressure Wind Wind Speed Wind Gust Humidity Rainfall Rate (Hourly) solar
00:04 64.2 °F 55.4 °F 29.9 in Calm     73% 0 in 0 W/m2
00:09 64 °F 55.2 °F 29.9 in SW 0.9 mph 2 mph 73% 0 in 0 W/m2
00:14 64 °F 55.2 °F 29.9 in Calm   1 mph 73% 0 in 0 W/m2
00:24 63.7 °F 54.9 °F 29.9 in Calm     73% 0 in 0 W/m2
00:29 63.7 °F 54.9 °F 29.9 in Calm     73% 0 in 0 W/m2
00:34 63.3 °F 54.5 °F 29.9 in Calm   1 mph 73% 0 in 0 W/m2
00:39 63.3 °F 54.5 °F 29.9 in Calm   1 mph 73% 0 in 0 W/m2
00:44 63.3 °F 54.5 °F 29.9 in SW 0.9 mph 2 mph 73% 0 in 0 W/m2
00:49 63.1 °F 54.3 °F 29.9 in Calm   1 mph 73% 0 in 0 W/m2
00:54 63.1 °F 54.7 °F 29.9 in Calm     74% 0 in 0 W/m2
00:59 63.1 °F 54.7 °F 29.9 in Calm   2 mph 74% 0 in 0 W/m2
01:04 63.1 °F 54.7 °F 29.9 in Calm     74% 0 in 0 W/m2
01:09 63.1 °F 54.7 °F 29.9 in SW 0.9 mph 2 mph 74% 0 in 0 W/m2
01:14 63.1 °F 54.7 °F 29.9 in SW 0.9 mph 1 mph 74% 0 in 0 W/m2
01:19 63.1 °F 54.7 °F 29.9 in Calm   1 mph 74% 0 in 0 W/m2
01:24 63.1 °F 54.3 °F 29.9 in SW 0.9 mph 1 mph 73% 0 in 0 W/m2
01:29 63.1 °F 54.7 °F 29.9 in Calm     74% 0 in 0 W/m2
01:34 63.5 °F 54.3 °F 29.9 in WSW 4.9 mph 9 mph 72% 0 in 0 W/m2
01:39 65.5 °F 55 °F 29.9 in WNW 8.9 mph 12 mph 69% 0 in 0 W/m2
01:49 65.8 °F 57.4 °F 29.9 in West 2 mph 6 mph 74% 0 in 0 W/m2
01:54 65.1 °F 57.7 °F 29.9 in WSW 0.9 mph 1 mph 77% 0 in 0 W/m2
01:59 64.6 °F 58.6 °F 29.9 in Calm   1 mph 81% 0 in 0 W/m2
02:04 64.2 °F 58.6 °F 29.9 in West 2 mph 2 mph 82% 0.09 in 0 W/m2
02:09 63.7 °F 59 °F 29.9 in SW 0.9 mph 3 mph 85% 0.11 in 0 W/m2
02:14 63 °F 58.6 °F 29.9 in Calm   2 mph 86% 0.11 in 0 W/m2
02:19 62.4 °F 58.8 °F 29.9 in SW 0.9 mph 3 mph 88% 0.11 in 0 W/m2
02:24 62.1 °F 58.8 °F 29.9 in SW 0.9 mph 1 mph 89% 0.12 in 0 W/m2
02:29 61.9 °F 58.6 °F 29.9 in SW 2 mph 3 mph 89% 0.12 in 0 W/m2
02:34 61.5 °F 58.6 °F 29.9 in SW 0.9 mph 2 mph 90% 0.12 in 0 W/m2
02:39 61.2 °F 58.3 °F 29.9 in SSW 0.9 mph 3 mph 90% 0.12 in 0 W/m2
02:44 61 °F 58.3 °F 29.9 in Calm   1 mph 91% 0.12 in 0 W/m2
02:49 60.6 °F 57.9 °F 29.9 in Calm     91% 0.12 in 0 W/m2
02:54 60.6 °F 58.3 °F 29.9 in Calm   1 mph 92% 0.12 in 0 W/m2
02:59 60.4 °F 58.1 °F 29.9 in SSW 0.9 mph 2 mph 92% 0.12 in 0 W/m2
03:04 60.3 °F 57.9 °F 29.9 in Calm   2 mph 92% 0.02 in 0 W/m2
03:09 60.1 °F 57.7 °F 29.9 in Calm   1 mph 92% 0.01 in 0 W/m2
03:15 60.1 °F 57.7 °F 29.9 in Calm   2 mph 92% 0.01 in 0 W/m2
03:20 59.7 °F 57.7 °F 29.9 in Calm     93% 0.01 in 0 W/m2
03:25 59.7 °F 57.7 °F 29.9 in Calm     93% 0 in 0 W/m2
03:30 59.7 °F 57.7 °F 29.9 in Calm   1 mph 93% 0 in 0 W/m2
03:35 59.7 °F 57.7 °F 29.9 in Calm     93% 0 in 0 W/m2
03:40 59.7 °F 57.7 °F 29.9 in Calm   1 mph 93% 0 in 0 W/m2
03:45 59.5 °F 57.7 °F 29.9 in Calm     94% 0 in 0 W/m2
03:50 59.5 °F 57.7 °F 29.9 in Calm     94% 0 in 0 W/m2
03:55 59.5 °F 57.7 °F 29.9 in Calm     94% 0 in 0 W/m2
04:00 59.5 °F 57.7 °F 29.9 in Calm     94% 0 in 0 W/m2
04:05 59.5 °F 57.7 °F 29.9 in Calm     94% 0 in 0 W/m2
04:10 59.5 °F 57.7 °F 29.9 in Calm     94% 0 in 0 W/m2
04:15 59.5 °F 57.7 °F 29.9 in Calm     94% 0 in 0 W/m2
04:20 59.5 °F 57.7 °F 29.9 in Calm     94% 0 in 0 W/m2
04:25 59.5 °F 57.7 °F 29.9 in Calm     94% 0 in 0 W/m2
04:30 59.5 °F 57.7 °F 29.9 in Calm     94% 0 in 0 W/m2
04:35 59.5 °F 58.1 °F 29.9 in Calm   2 mph 95% 0 in 0 W/m2
04:40 59.5 °F 58.1 °F 29.9 in Calm   1 mph 95% 0 in 0 W/m2
04:45 59.5 °F 58.1 °F 29.9 in Calm   2 mph 95% 0 in 0 W/m2
04:50 59.5 °F 58.1 °F 29.9 in Calm   1 mph 95% 0 in 0 W/m2
04:55 59.4 °F 57.9 °F 29.9 in Calm     95% 0 in 0 W/m2
05:00 59.4 °F 57.9 °F 29.9 in Calm   1 mph 95% 0 in 0 W/m2
05:05 59.4 °F 57.9 °F 29.9 in Calm     95% 0 in 0 W/m2
05:10 59.4 °F 57.9 °F 29.9 in Calm     95% 0 in 0 W/m2
05:15 59.4 °F 57.9 °F 29.9 in Calm     95% 0 in 0 W/m2
05:20 59.4 °F 57.9 °F 29.9 in Calm     95% 0 in 0 W/m2
05:25 59.4 °F 57.9 °F 29.9 in Calm     95% 0 in 0 W/m2
05:30 59.4 °F 57.9 °F 29.9 in Calm     95% 0 in 0 W/m2
05:35 59.4 °F 57.9 °F 29.9 in Calm     95% 0 in 0 W/m2
05:50 59.4 °F 57.9 °F 29.9 in Calm     95% 0 in 0 W/m2
05:55 59.4 °F 57.9 °F 29.9 in Calm     95% 0 in 0 W/m2
06:00 59.4 °F 57.9 °F 29.9 in Calm     95% 0 in 0 W/m2
06:15 58.8 °F 57.4 °F 29.9 in Calm   1 mph 95% 0 in 7 W/m2
06:20 58.6 °F 57.2 °F 29.9 in SW 0.9 mph 1 mph 95% 0 in 9 W/m2
06:25 58.6 °F 57.2 °F 29.9 in Calm     95% 0 in 11 W/m2
06:30 58.6 °F 57.2 °F 29.9 in Calm     95% 0 in 12 W/m2
06:35 58.5 °F 57 °F 29.9 in Calm     95% 0 in 16 W/m2
06:40 58.5 °F 57 °F 29.9 in Calm     95% 0 in 21 W/m2
06:45 58.5 °F 57 °F 29.9 in Calm     95% 0 in 25 W/m2
06:50 58.5 °F 57 °F 29.9 in Calm     95% 0 in 25 W/m2
06:55 58.5 °F 57 °F 29.9 in Calm     95% 0 in 23 W/m2
07:00 58.6 °F 57.6 °F 29.9 in SW 0.9 mph 1 mph 96% 0 in 23 W/m2
07:05 58.6 °F 57.6 °F 29.9 in Calm     96% 0 in 30 W/m2
07:10 58.8 °F 57.7 °F 29.9 in Calm     96% 0 in 33 W/m2
07:15 59 °F 57.9 °F 29.9 in Calm     96% 0 in 91 W/m2
07:20 59.4 °F 58.3 °F 29.9 in Calm   1 mph 96% 0 in 105 W/m2
07:25 59.5 °F 58.5 °F 29.9 in SW 0.9 mph 2 mph 96% 0 in 118 W/m2
07:30 59.7 °F 58.6 °F 29.9 in Calm   1 mph 96% 0 in 135 W/m2
07:35 60.1 °F 59 °F 29.9 in SW 2 mph 2 mph 96% 0 in 146 W/m2
07:40 60.3 °F 59.2 °F 29.9 in SW 0.9 mph 1 mph 96% 0 in 160 W/m2
07:45 60.4 °F 59.4 °F 29.9 in NNE 0.9 mph 2 mph 96% 0 in 172 W/m2
07:50 60.6 °F 59.5 °F 29.9 in Calm   1 mph 96% 0 in 188 W/m2
07:55 61.2 °F 60.1 °F 29.9 in WNW 2 mph 3 mph 96% 0 in 199 W/m2
08:00 61.5 °F 60.1 °F 29.9 in NNE 0.9 mph 1 mph 95% 0 in 204 W/m2
08:05 62.4 °F 60.6 °F 29.9 in NE 2 mph 3 mph 94% 0 in 148 W/m2
08:10 63.7 °F 60.4 °F 30 in SSE 0.9 mph 3 mph 89% 0 in 84 W/m2
08:15 64.8 °F 60.8 °F 30 in NE 2 mph 6 mph 87% 0 in 62 W/m2
08:20 65.3 °F 60.1 °F 30 in NNE 2.9 mph 6 mph 83% 0 in 62 W/m2
08:25 65.7 °F 60.1 °F 30 in WNW 2 mph 5 mph 82% 0 in 67 W/m2
08:30 65.7 °F 59.7 °F 30 in WSW 0.9 mph 3 mph 81% 0 in 60 W/m2
08:35 66 °F 60.4 °F 30 in NNW 0.9 mph 2 mph 82% 0 in 63 W/m2
08:40 66.4 °F 60.1 °F 30 in NW 2 mph 5 mph 80% 0 in 65 W/m2
08:45 66.4 °F 60.4 °F 30 in NNW 2.9 mph 6 mph 81% 0 in 69 W/m2
08:50 66.4 °F 60.4 °F 30 in NW 8.1 mph 9 mph 81% 0 in 69 W/m2
08:55 66.4 °F 60.1 °F 30 in WNW 8.1 mph 8 mph 80% 0 in 74 W/m2
09:00 66.4 °F 60.1 °F 30 in NNW 2 mph 12 mph 80% 0 in 72 W/m2
09:06 66.4 °F 60.4 °F 30 in WNW 2.9 mph 11 mph 81% 0 in 70 W/m2
09:11 66.4 °F 60.4 °F 30 in WNW 2.9 mph 9 mph 81% 0 in 62 W/m2
09:16 66.4 °F 60.4 °F 30 in West 2 mph 9 mph 81% 0 in 76 W/m2
09:21 66.7 °F 61 °F 30 in WNW 4 mph 14 mph 82% 0 in 79 W/m2
09:26 67.1 °F 61.2 °F 30 in West 6 mph 15 mph 81% 0 in 69 W/m2
09:31 67.3 °F 61.2 °F 30 in WNW 4.9 mph 11 mph 81% 0 in 86 W/m2
09:36 67.3 °F 61.2 °F 30 in West 6.9 mph 9 mph 81% 0 in 142 W/m2
09:41 67.3 °F 61.2 °F 30 in West 2.9 mph 9 mph 81% 0 in 181 W/m2
09:46 67.3 °F 61.2 °F 30 in WNW 12.1 mph 12 mph 81% 0 in 142 W/m2
09:51 67.3 °F 61 °F 30 in WNW 6.9 mph 12 mph 80% 0 in 134 W/m2
09:56 67.1 °F 60.8 °F 30 in NW 13 mph 13 mph 80% 0 in 127 W/m2
10:01 67.1 °F 60.8 °F 30 in WNW 8.1 mph 11 mph 80% 0 in 102 W/m2
10:06 66.9 °F 60.6 °F 30 in WNW 4 mph 12 mph 80% 0 in 102 W/m2
10:11 66.7 °F 60.4 °F 30 in West 4 mph 12 mph 80% 0 in 118 W/m2
10:16 66.7 °F 60.8 °F 30 in WNW 4 mph 10 mph 81% 0 in 158 W/m2
10:21 66.9 °F 61 °F 30 in WNW 4.9 mph 14 mph 81% 0 in 206 W/m2
10:26 67.1 °F 61.2 °F 30 in NW 4.9 mph 8 mph 81% 0 in 251 W/m2
10:31 67.3 °F 61.2 °F 30 in WNW 0.9 mph 12 mph 81% 0 in 279 W/m2
10:36 67.6 °F 61.5 °F 30 in WNW 4.9 mph 9 mph 81% 0 in 271 W/m2
10:41 67.8 °F 61.3 °F 30 in WNW 4.9 mph 10 mph 80% 0 in 216 W/m2
10:46 67.6 °F 61.2 °F 30 in WNW 4.9 mph 10 mph 80% 0 in 229 W/m2
10:51 67.5 °F 61.3 °F 30 in NW 2 mph 9 mph 81% 0 in 234 W/m2
10:56 67.5 °F 61.3 °F 30 in NNW 2.9 mph 9 mph 81% 0 in 216 W/m2
11:01 67.5 °F 61.3 °F 30 in West 10.1 mph 10 mph 81% 0 in 244 W/m2
11:06 67.5 °F 61.2 °F 30 in WNW 12.1 mph 12 mph 80% 0 in 202 W/m2
11:11 67.5 °F 61.2 °F 30 in WNW 12.1 mph 12 mph 80% 0 in 211 W/m2
11:16 67.3 °F 61 °F 30 in WNW 6.9 mph 13 mph 80% 0 in 223 W/m2
11:21 67.1 °F 60.8 °F 30 in NNW 15 mph 15 mph 80% 0 in 250 W/m2
11:26 66.9 °F 60.6 °F 30 in WNW 6 mph 11 mph 80% 0 in 221 W/m2
11:31 66.7 °F 60.4 °F 30 in West 8.9 mph 9 mph 80% 0 in 204 W/m2
11:36 66.7 °F 60.4 °F 30 in WNW 0.9 mph 9 mph 80% 0 in 174 W/m2
11:41 66.9 °F 61 °F 30 in NNW 4.9 mph 11 mph 81% 0 in 216 W/m2
11:46 66.9 °F 60.6 °F 30 in WNW 2 mph 10 mph 80% 0 in 172 W/m2
11:51 67.1 °F 61.2 °F 30 in Calm   11 mph 81% 0 in 139 W/m2
11:56 67.1 °F 60.8 °F 30 in WNW 2 mph 8 mph 80% 0 in 141 W/m2
12:01 66.9 °F 60.6 °F 30 in WSW 2.9 mph 4 mph 80% 0 in 114 W/m2
12:06 66.7 °F 60.4 °F 30 in NW 2.9 mph 9 mph 80% 0 in 125 W/m2
12:11 66.4 °F 60.4 °F 30 in WSW 4 mph 8 mph 81% 0 in 116 W/m2
12:16 66.2 °F 60.3 °F 30 in NNW 0.9 mph 9 mph 81% 0 in 98 W/m2
12:21 66 °F 60.4 °F 30.1 in WNW 4 mph 5 mph 82% 0 in 93 W/m2
12:26 65.8 °F 60.3 °F 30.1 in WNW 2 mph 5 mph 82% 0 in 88 W/m2
12:31 65.7 °F 60.4 °F 30.1 in NW 4 mph 5 mph 83% 0 in 97 W/m2
12:36 65.5 °F 60.3 °F 30.1 in SW 2.9 mph 11 mph 83% 0 in 90 W/m2
12:41 65.3 °F 60.1 °F 30.1 in West 4 mph 8 mph 83% 0 in 77 W/m2
12:46 65.1 °F 59.9 °F 30.1 in West 0.9 mph 8 mph 83% 0 in 74 W/m2
12:51 65.1 °F 60.1 °F 30.1 in SW 0.9 mph 3 mph 84% 0 in 81 W/m2
12:56 65.1 °F 60.1 °F 30.1 in WNW 2 mph 3 mph 84% 0 in 102 W/m2
13:01 64.9 °F 60.3 °F 30.1 in West 2 mph 8 mph 85% 0 in 95 W/m2
13:06 64.8 °F 60.4 °F 30.1 in WNW 4 mph 7 mph 86% 0 in 95 W/m2
13:11 64.6 °F 60.3 °F 30.1 in West 2 mph 6 mph 86% 0.01 in 100 W/m2
13:16 64.2 °F 60.3 °F 30.1 in NW 2 mph 7 mph 87% 0.01 in 116 W/m2
13:21 64.2 °F 60.3 °F 30.1 in WNW 4.9 mph 5 mph 87% 0.01 in 127 W/m2
13:26 64 °F 60.1 °F 30.1 in WNW 8.1 mph 8 mph 87% 0.01 in 132 W/m2
13:31 64 °F 60.1 °F 30.1 in West 2.9 mph 6 mph 87% 0.01 in 144 W/m2
13:36 64 °F 60.4 °F 30.1 in WNW 2 mph 4 mph 88% 0.01 in 142 W/m2
13:41 64 °F 60.4 °F 30.1 in West 2.9 mph 4 mph 88% 0.01 in 148 W/m2
13:46 63.9 °F 60.3 °F 30.1 in WSW 2.9 mph 9 mph 88% 0.01 in 155 W/m2
13:51 64 °F 60.4 °F 30.1 in West 2.9 mph 6 mph 88% 0.01 in 207 W/m2
13:56 64 °F 60.4 °F 30.1 in WSW 8.9 mph 10 mph 88% 0.01 in 272 W/m2
14:01 64.2 °F 60.6 °F 30.1 in West 2.9 mph 6 mph 88% 0.01 in 278 W/m2
14:06 64.6 °F 61 °F 30.1 in West 4 mph 7 mph 88% 0.01 in 255 W/m2
14:11 64.8 °F 60.8 °F 30.1 in West 2 mph 5 mph 87% 0 in 237 W/m2
14:16 64.9 °F 61 °F 30.1 in WNW 4 mph 6 mph 87% 0 in 218 W/m2
14:21 64.9 °F 60.6 °F 30.1 in NW 4 mph 9 mph 86% 0 in 220 W/m2
14:26 65.1 °F 60.8 °F 30.1 in WNW 2.9 mph 9 mph 86% 0 in 216 W/m2
14:31 65.1 °F 60.8 °F 30.1 in West 4 mph 6 mph 86% 0 in 211 W/m2
14:36 65.5 °F 60.8 °F 30.1 in WNW 2 mph 7 mph 85% 0 in 204 W/m2
14:41 65.5 °F 60.8 °F 30.1 in WNW 2.9 mph 8 mph 85% 0 in 179 W/m2
14:46 65.5 °F 60.8 °F 30.1 in WNW 4 mph 8 mph 85% 0 in 171 W/m2
14:51 65.5 °F 60.4 °F 30.1 in NW 4 mph 7 mph 84% 0 in 158 W/m2
14:56 65.5 °F 60.4 °F 30.1 in West 6 mph 6 mph 84% 0 in 146 W/m2
15:01 65.5 °F 60.8 °F 30.1 in West 2.9 mph 5 mph 85% 0 in 155 W/m2
15:06 65.5 °F 60.8 °F 30.1 in WNW 4.9 mph 7 mph 85% 0 in 171 W/m2
15:11 65.3 °F 60.6 °F 30.1 in WNW 0.9 mph 4 mph 85% 0 in 197 W/m2
15:16 65.3 °F 61 °F 30.1 in NW 0.9 mph 1 mph 86% 0 in 246 W/m2
15:21 65.5 °F 61.2 °F 30.1 in WSW 2 mph 5 mph 86% 0 in 323 W/m2
15:26 65.7 °F 61.3 °F 30.1 in West 4 mph 8 mph 86% 0 in 422 W/m2
15:31 65.8 °F 61.2 °F 30.1 in WSW 2.9 mph 7 mph 85% 0 in 705 W/m2
15:36 66.6 °F 61.2 °F 30.1 in WSW 2.9 mph 8 mph 83% 0 in 675 W/m2
15:41 67.5 °F 60.8 °F 30.1 in NW 6.9 mph 10 mph 79% 0 in 800 W/m2
15:46 68.4 °F 61.5 °F 30.1 in WNW 4 mph 10 mph 79% 0 in 759 W/m2
15:51 68.7 °F 60.8 °F 30.1 in WSW 2.9 mph 9 mph 76% 0 in 809 W/m2
15:56 69.4 °F 61.5 °F 30.1 in West 6 mph 7 mph 76% 0 in 860 W/m2
16:01 69.8 °F 61.2 °F 30.1 in WNW 4 mph 6 mph 74% 0 in 809 W/m2
16:06 70.2 °F 61.5 °F 30.1 in West 6 mph 7 mph 74% 0 in 768 W/m2
16:11 70.3 °F 60.4 °F 30.1 in WNW 2 mph 6 mph 71% 0 in 471 W/m2
16:16 70 °F 60.6 °F 30.1 in West 6.9 mph 10 mph 72% 0 in 401 W/m2
16:21 69.8 °F 60.8 °F 30.1 in West 4 mph 8 mph 73% 0 in 364 W/m2
16:26 69.4 °F 60.4 °F 30.1 in West 6 mph 13 mph 73% 0 in 346 W/m2
16:31 69.1 °F 60.4 °F 30.1 in West 0.9 mph 8 mph 74% 0 in 301 W/m2
16:36 68.7 °F 60.1 °F 30.1 in WSW 4 mph 8 mph 74% 0 in 274 W/m2
16:41 68.7 °F 60.4 °F 30.1 in WNW 4 mph 11 mph 75% 0 in 459 W/m2
16:46 69.1 °F 60.8 °F 30.1 in SW 2 mph 4 mph 75% 0 in 547 W/m2
16:51 69.4 °F 60.8 °F 30.1 in NW 4.9 mph 10 mph 74% 0 in 555 W/m2
16:56 69.6 °F 61 °F 30.1 in West 0.9 mph 9 mph 74% 0 in 612 W/m2
17:01 70 °F 61 °F 30.1 in West 6 mph 7 mph 73% 0 in 740 W/m2
17:11 71.1 °F 59.9 °F 30.1 in SW 4 mph 12 mph 68% 0 in 729 W/m2
17:16 71.1 °F 60.4 °F 30.1 in WSW 8.1 mph 10 mph 69% 0 in 629 W/m2
17:21 71.2 °F 60.6 °F 30.1 in West 2 mph 12 mph 69% 0 in 603 W/m2
17:26 71.8 °F 60.6 °F 30.1 in WNW 2.9 mph 11 mph 68% 0 in 642 W/m2
17:31 71.4 °F 59 °F 30.1 in WSW 2.9 mph 8 mph 65% 0 in 628 W/m2
17:36 71.8 °F 59.7 °F 30.1 in WNW 2.9 mph 11 mph 66% 0 in 570 W/m2
17:41 72.1 °F 59.4 °F 30.1 in WNW 11 mph 11 mph 64% 0 in 548 W/m2
17:46 72 °F 59.5 °F 30.1 in WNW 2 mph 3 mph 65% 0 in 506 W/m2
17:51 72.1 °F 59.4 °F 30.1 in NW 2.9 mph 7 mph 64% 0 in 522 W/m2
17:56 72.1 °F 58.8 °F 30.1 in WNW 2.9 mph 8 mph 63% 0 in 508 W/m2
18:01 72.5 °F 59.5 °F 30 in SSE 2 mph 3 mph 64% 0 in 485 W/m2
18:06 72.9 °F 59 °F 30.1 in WSW 4.9 mph 10 mph 62% 0 in 473 W/m2
18:11 72.9 °F 59.5 °F 30.1 in West 8.1 mph 8 mph 63% 0 in 448 W/m2
18:16 72.9 °F 59 °F 30.1 in WSW 4 mph 7 mph 62% 0 in 436 W/m2
18:21 72.7 °F 58.8 °F 30.1 in NNW 2.9 mph 6 mph 62% 0 in 457 W/m2
18:26 72.9 °F 59 °F 30.1 in Calm   2 mph 62% 0 in 211 W/m2
18:31 72.7 °F 59.4 °F 30.1 in WNW 2.9 mph 7 mph 63% 0 in 95 W/m2
18:36 72 °F 59.2 °F 30.1 in WSW 2 mph 4 mph 64% 0 in 149 W/m2
18:41 72 °F 59.5 °F 30.1 in Calm   4 mph 65% 0 in 134 W/m2
18:46 72.3 °F 59.5 °F 30.1 in WSW 4 mph 4 mph 64% 0 in 79 W/m2
18:51 72.1 °F 59.4 °F 30.1 in West 2 mph 4 mph 64% 0 in 54 W/m2
18:56 71.4 °F 59 °F 30.1 in West 0.9 mph 4 mph 65% 0 in 74 W/m2
19:01 71.1 °F 59.2 °F 30.1 in West 2 mph 4 mph 66% 0 in 111 W/m2
19:06 71.2 °F 59.7 °F 30.1 in West 0.9 mph 3 mph 67% 0 in 81 W/m2
19:11 71.8 °F 59.7 °F 30.1 in West 0.9 mph 2 mph 66% 0 in 79 W/m2
19:16 72 °F 59.5 °F 30.1 in West 2 mph 6 mph 65% 0 in 86 W/m2
19:21 72 °F 59.9 °F 30.1 in West 2 mph 3 mph 66% 0 in 77 W/m2
19:31 72.3 °F 59.5 °F 30.1 in WSW 4 mph 8 mph 64% 0 in 67 W/m2
19:36 72.3 °F 59.9 °F 30.1 in WSW 2 mph 3 mph 65% 0 in 62 W/m2
19:41 72 °F 59.5 °F 30.1 in West 2.9 mph 8 mph 65% 0 in 62 W/m2
19:46 71.8 °F 59.7 °F 30.1 in WNW 4.9 mph 5 mph 66% 0 in 54 W/m2
19:51 71.2 °F 59.4 °F 30.1 in West 2.9 mph 4 mph 66% 0 in 49 W/m2
19:56 71.1 °F 59.5 °F 30.1 in WSW 0.9 mph 3 mph 67% 0 in 46 W/m2
20:01 71.1 °F 59.5 °F 30.1 in West 2.9 mph 6 mph 67% 0 in 63 W/m2
20:06 70.9 °F 59.7 °F 30.1 in West 2 mph 3 mph 68% 0 in 40 W/m2
20:11 70.5 °F 59.4 °F 30.1 in Calm   6 mph 68% 0 in 37 W/m2
20:16 70.3 °F 59.7 °F 30.1 in Calm   2 mph 69% 0 in 35 W/m2
20:21 70.3 °F 60.8 °F 30.1 in West 0.9 mph 1 mph 72% 0 in 32 W/m2
20:26 70 °F 60.6 °F 30.1 in West 0.9 mph 1 mph 72% 0 in 28 W/m2
20:31 69.6 °F 60.6 °F 30.1 in Calm   1 mph 73% 0 in 26 W/m2
20:36 69.3 °F 60.6 °F 30.1 in Calm   1 mph 74% 0 in 25 W/m2
20:41 68.7 °F 60.4 °F 30.1 in Calm   1 mph 75% 0 in 21 W/m2
20:46 68.4 °F 60.4 °F 30.1 in Calm   1 mph 76% 0 in 19 W/m2
20:51 67.8 °F 59.9 °F 30.1 in Calm   1 mph 76% 0 in 14 W/m2
20:56 67.5 °F 60.1 °F 30.1 in Calm     77% 0 in 12 W/m2
21:01 66.9 °F 59.5 °F 30.1 in West 0.9 mph 2 mph 77% 0 in 9 W/m2
21:06 66.7 °F 59.7 °F 30.1 in Calm   1 mph 78% 0 in 7 W/m2
21:11 66.4 °F 59.4 °F 30.1 in Calm   2 mph 78% 0 in 5 W/m2
21:16 66 °F 59.4 °F 30.1 in Calm     79% 0 in 0 W/m2
21:21 65.8 °F 59.2 °F 30.1 in West 2 mph 2 mph 79% 0 in 0 W/m2
21:26 65.7 °F 59.4 °F 30.1 in Calm   1 mph 80% 0 in 0 W/m2
21:31 65.3 °F 59 °F 30.1 in Calm     80% 0 in 0 W/m2
21:36 65.1 °F 59.2 °F 30.1 in Calm   1 mph 81% 0 in 0 W/m2
21:41 64.8 °F 58.8 °F 30.1 in Calm     81% 0 in 0 W/m2
21:46 64.6 °F 58.6 °F 30.1 in Calm   1 mph 81% 0 in 0 W/m2
21:51 64.4 °F 58.8 °F 30.1 in Calm     82% 0 in 0 W/m2
21:56 64 °F 58.5 °F 30.1 in Calm     82% 0 in 0 W/m2
22:01 63.9 °F 58.3 °F 30.1 in Calm     82% 0 in 0 W/m2
22:06 63.7 °F 58.5 °F 30.1 in Calm     83% 0 in 0 W/m2
22:11 63.3 °F 58.1 °F 30.1 in Calm     83% 0 in 0 W/m2
22:16 63.1 °F 57.9 °F 30.1 in Calm     83% 0 in 0 W/m2
22:22 63 °F 58.1 °F 30.1 in Calm     84% 0 in 0 W/m2
22:27 62.4 °F 57.6 °F 30.1 in Calm     84% 0 in 0 W/m2
22:32 62.2 °F 57.7 °F 30.1 in Calm     85% 0 in 0 W/m2
22:37 62.1 °F 57.6 °F 30.1 in Calm     85% 0 in 0 W/m2
22:42 61.7 °F 57.4 °F 30.1 in Calm     86% 0 in 0 W/m2
22:47 61.5 °F 57.4 °F 30.1 in Calm     86% 0 in 0 W/m2
22:52 61.2 °F 57.2 °F 30.1 in Calm     87% 0 in 0 W/m2
22:57 61.2 °F 57.2 °F 30.1 in Calm     87% 0 in 0 W/m2
23:02 61 °F 57.4 °F 30.1 in Calm     88% 0 in 0 W/m2
23:07 61 °F 57.4 °F 30.1 in Calm   2 mph 88% 0 in 0 W/m2
23:12 60.6 °F 57 °F 30.1 in Calm     88% 0 in 0 W/m2
23:17 60.6 °F 57 °F 30.1 in Calm   2 mph 88% 0 in 0 W/m2
23:22 60.4 °F 56.8 °F 30.1 in Calm   1 mph 88% 0 in 0 W/m2
23:27 60.3 °F 56.7 °F 30.1 in Calm     88% 0 in 0 W/m2
23:32 60.1 °F 56.5 °F 30.1 in Calm   1 mph 88% 0 in 0 W/m2
23:37 59.9 °F 56.3 °F 30.1 in Calm     88% 0 in 0 W/m2
23:42 59.7 °F 56.5 °F 30.1 in Calm     89% 0 in 0 W/m2
23:47 59.5 °F 56.3 °F 30.1 in Calm     89% 0 in 0 W/m2
23:52 59.5 °F 56.3 °F 30.1 in Calm     89% 0 in 0 W/m2
23:57 59.4 °F 56.5 °F 30.1 in Calm     90% 0 in 0 W/m2
Juneau County Weather
Compliments of Weather Underground - 4 mb